Gales Ferry, CT (06335)

7:21 AM EDT on May 24, 2015 (GMT -0400)
Windward Lane | | Change Station
CLOSE
Current Station
Personal Weather Station
Location: Ledyard, CT
Elevation: 177 ft
Nearby Weather Stations
Active Advisory: Special Statement Active Notice: Public Information Statement

Elev 177 ft 41.48 °N, 72.04 °W | Updated 8 minutes ago

Clear
Clear
54.7 °F
Feels Like 54.7 °F
N
0.0
Wind Variable Wind from WSW

Today
High -- | Low -- °F
--% Chance of Precip.
Yesterday
High -- | Low -- °F
Precip. -- in
5:21 AM 8:08 PM
Waxing Crescent, 38% visible
Pressure 30.33 in
Visibility 10.0 miles
Clouds Clear
Dew Point 52 °F
Humidity 89%
Rainfall 0.00 in
Snow Depth Not available.
UV 1 out of 12
Pollen 10.00 out of 12
Air Quality Not available.
Flu Activity Regional
METAR KGON 241056Z 24005KT 10SM CLR 12/09 A3033 RMK AO2 SLP269 T01220094

More Conditions Fewer Conditions

Pressure 30.33 in
Visibility 10.0 miles
Clouds Clear
Dew Point 52 °F
Humidity 89%
Rainfall 0.00 in
Snow Depth Not available.
UV 1 out of 12
Pollen 10.00 out of 12
Air Quality Not available.
Flu Activity Regional
METAR KGON 241056Z 24005KT 10SM CLR 12/09 A3033 RMK AO2 SLP269 T01220094

More Conditions Fewer Conditions

10-Day Weather Forecast

Almanac

Astronomy

May. 24, 2015 Rise Set
Actual Time
Civil Twilight
Nautical Twilight
Astronomical Twilight
Moon
Length of Visible Light
Length of Day
Tomorrow will be .
, % of the Moon is Illuminated

Today's Extremes

State Highs State Lows

Community

WunderPhotos

Upload Photos

1,823,715 photos uploaded!

WunderBlogs® & News

Nearby

Air Quality

  Air Quality AQ Index Pollutant
Not available.

Snow Depth

Station Depth Elevation

Earthquake Activity

City Distance Mag. Time & Date
Minimum magnitude displayed is 2.5.

Coastal Water Temperatures

Place Temperature

Stations

Nearby Weather Stations

Station Location Temp. Windchill Dew Point Humidity Wind Precip. Elev Updated Type
                   
Special Statement
Statement as of 4:44 AM EDT on May 24, 2015

... Enhanced fire weather conditions today into early this
evening...

Southwest flow today into early this evening will be generally 10
to 20 mph and this will help lower dewpoints with vertical mixing.
As a result... minimum relative humidities will be near 25 to 30
percent for much of the region... so these conditions will enhance
the spread and growth of any fires that develop.



444 am EDT sun may 24 2015

... Enhanced fire weather conditions today into early this
evening...

Southwest flow today into early this evening will be generally 10
to 20 mph and this will help lower dewpoints with vertical mixing.
As a result... minimum relative humidities will be near 25 to 30
percent for much of the region... so these conditions will enhance
the spread and growth of any fires that develop.